sensor_id;sensor_type;location;lat;lon;timestamp;P1;durP1;ratioP1;P2;durP2;ratioP2
43413;SDS011;29013;49.676;8.606;2022-08-01T00:03:18;1.41;;;1.48;;
43413;SDS011;29013;49.676;8.606;2022-08-01T00:08:46;3.02;;;1.29;;
43413;SDS011;29013;49.676;8.606;2022-08-01T00:14:11;4.81;;;1.48;;
43413;SDS011;29013;49.676;8.606;2022-08-01T00:19:40;4.34;;;1.42;;
43413;SDS011;29013;49.676;8.606;2022-08-01T00:25:05;1.62;;;1.33;;
43413;SDS011;29013;49.676;8.606;2022-08-01T00:30:28;3.33;;;1.42;;
43413;SDS011;29013;49.676;8.606;2022-08-01T00:35:53;2.48;;;1.47;;
43413;SDS011;29013;49.676;8.606;2022-08-01T00:41:21;1.36;;;1.16;;
43413;SDS011;29013;49.676;8.606;2022-08-01T00:46:43;0.98;;;0.93;;
43413;SDS011;29013;49.676;8.606;2022-08-01T00:52:08;1.47;;;1.15;;
43413;SDS011;29013;49.676;8.606;2022-08-01T00:57:36;3.51;;;1.1;;
43413;SDS011;29013;49.676;8.606;2022-08-01T01:03:01;3.63;;;1.53;;
43413;SDS011;29013;49.676;8.606;2022-08-01T01:08:32;1.4;;;0.92;;
43413;SDS011;29013;49.676;8.606;2022-08-01T01:13:54;1.06;;;1.09;;
43413;SDS011;29013;49.676;8.606;2022-08-01T01:19:20;2.37;;;0.8;;
43413;SDS011;29013;49.676;8.606;2022-08-01T01:24:45;2.39;;;1.11;;
43413;SDS011;29013;49.676;8.606;2022-08-01T01:30:06;1.9;;;1.13;;
43413;SDS011;29013;49.676;8.606;2022-08-01T01:35:32;2.02;;;1.0;;
43413;SDS011;29013;49.676;8.606;2022-08-01T01:40:58;2.62;;;1.33;;
43413;SDS011;29013;49.676;8.606;2022-08-01T01:46:24;4.27;;;1.3;;
43413;SDS011;29013;49.676;8.606;2022-08-01T01:51:51;2.78;;;1.41;;
43413;SDS011;29013;49.676;8.606;2022-08-01T01:57:18;1.73;;;1.46;;
43413;SDS011;29013;49.676;8.606;2022-08-01T02:02:41;2.92;;;1.37;;
43413;SDS011;29013;49.676;8.606;2022-08-01T02:08:13;2.38;;;1.08;;
43413;SDS011;29013;49.676;8.606;2022-08-01T02:13:37;2.63;;;0.92;;
43413;SDS011;29013;49.676;8.606;2022-08-01T02:19:02;1.2;;;0.84;;
43413;SDS011;29013;49.676;8.606;2022-08-01T02:24:36;1.32;;;0.89;;
43413;SDS011;29013;49.676;8.606;2022-08-01T02:29:58;0.73;;;0.75;;
43413;SDS011;29013;49.676;8.606;2022-08-01T02:35:24;1.62;;;0.81;;
43413;SDS011;29013;49.676;8.606;2022-08-01T02:40:50;3.28;;;0.72;;
43413;SDS011;29013;49.676;8.606;2022-08-01T02:46:16;0.82;;;0.76;;
43413;SDS011;29013;49.676;8.606;2022-08-01T02:51:38;0.69;;;0.65;;
43413;SDS011;29013;49.676;8.606;2022-08-01T02:57:00;0.74;;;0.83;;
43413;SDS011;29013;49.676;8.606;2022-08-01T03:02:22;1.64;;;0.68;;
43413;SDS011;29013;49.676;8.606;2022-08-01T03:07:43;1.79;;;1.35;;
43413;SDS011;29013;49.676;8.606;2022-08-01T03:13:06;4.06;;;2.1;;
43413;SDS011;29013;49.676;8.606;2022-08-01T03:18:32;3.39;;;1.8;;
43413;SDS011;29013;49.676;8.606;2022-08-01T03:23:59;2.85;;;1.26;;
43413;SDS011;29013;49.676;8.606;2022-08-01T03:29:26;2.3;;;1.38;;
43413;SDS011;29013;49.676;8.606;2022-08-01T03:34:52;2.38;;;1.4;;
43413;SDS011;29013;49.676;8.606;2022-08-01T03:40:21;2.25;;;1.25;;
43413;SDS011;29013;49.676;8.606;2022-08-01T03:45:48;1.65;;;1.34;;
43413;SDS011;29013;49.676;8.606;2022-08-01T03:51:11;2.54;;;1.1;;
43413;SDS011;29013;49.676;8.606;2022-08-01T03:56:38;2.09;;;0.85;;
43413;SDS011;29013;49.676;8.606;2022-08-01T04:02:05;2.18;;;1.24;;
43413;SDS011;29013;49.676;8.606;2022-08-01T04:07:33;2.41;;;1.25;;
43413;SDS011;29013;49.676;8.606;2022-08-01T04:13:00;2.39;;;1.16;;
43413;SDS011;29013;49.676;8.606;2022-08-01T04:18:28;1.48;;;1.12;;
43413;SDS011;29013;49.676;8.606;2022-08-01T04:23:49;1.9;;;1.19;;
43413;SDS011;29013;49.676;8.606;2022-08-01T04:29:11;3.11;;;0.95;;
43413;SDS011;29013;49.676;8.606;2022-08-01T04:34:32;2.66;;;1.07;;
43413;SDS011;29013;49.676;8.606;2022-08-01T04:39:54;2.64;;;1.34;;
43413;SDS011;29013;49.676;8.606;2022-08-01T04:45:15;2.62;;;1.1;;
43413;SDS011;29013;49.676;8.606;2022-08-01T04:50:37;1.19;;;0.9;;
43413;SDS011;29013;49.676;8.606;2022-08-01T04:55:59;1.31;;;0.96;;
43413;SDS011;29013;49.676;8.606;2022-08-01T05:01:21;1.06;;;0.93;;
43413;SDS011;29013;49.676;8.606;2022-08-01T05:06:44;1.87;;;0.79;;
43413;SDS011;29013;49.676;8.606;2022-08-01T05:12:09;1.65;;;0.87;;
43413;SDS011;29013;49.676;8.606;2022-08-01T05:17:30;1.33;;;0.83;;
43413;SDS011;29013;49.676;8.606;2022-08-01T05:22:52;2.55;;;0.88;;
43413;SDS011;29013;49.676;8.606;2022-08-01T05:28:14;2.05;;;0.93;;
43413;SDS011;29013;49.676;8.606;2022-08-01T05:33:42;1.29;;;0.83;;
43413;SDS011;29013;49.676;8.606;2022-08-01T05:39:09;1.86;;;0.85;;
43413;SDS011;29013;49.676;8.606;2022-08-01T05:44:35;1.74;;;0.72;;
43413;SDS011;29013;49.676;8.606;2022-08-01T05:50:04;1.79;;;0.8;;
43413;SDS011;29013;49.676;8.606;2022-08-01T05:55:28;1.07;;;0.81;;
43413;SDS011;29013;49.676;8.606;2022-08-01T06:00:55;1.19;;;0.66;;
43413;SDS011;29013;49.676;8.606;2022-08-01T06:06:18;1.37;;;0.78;;
43413;SDS011;29013;49.676;8.606;2022-08-01T06:11:44;1.39;;;0.72;;
43413;SDS011;29013;49.676;8.606;2022-08-01T06:17:06;1.03;;;0.58;;
43413;SDS011;29013;49.676;8.606;2022-08-01T06:22:28;0.56;;;0.57;;
43413;SDS011;29013;49.676;8.606;2022-08-01T06:27:53;1.49;;;0.63;;
43413;SDS011;29013;49.676;8.606;2022-08-01T06:33:15;0.77;;;0.68;;
43413;SDS011;29013;49.676;8.606;2022-08-01T06:38:37;3.59;;;0.85;;
43413;SDS011;29013;49.676;8.606;2022-08-01T06:43:59;2.21;;;0.91;;
43413;SDS011;29013;49.676;8.606;2022-08-01T06:49:22;1.26;;;0.49;;
43413;SDS011;29013;49.676;8.606;2022-08-01T06:54:44;1.48;;;0.76;;
43413;SDS011;29013;49.676;8.606;2022-08-01T07:00:08;2.38;;;0.59;;
43413;SDS011;29013;49.676;8.606;2022-08-01T07:05:31;1.51;;;0.84;;
43413;SDS011;29013;49.676;8.606;2022-08-01T07:11:23;2.04;;;0.76;;
43413;SDS011;29013;49.676;8.606;2022-08-01T07:16:41;1.25;;;0.73;;
43413;SDS011;29013;49.676;8.606;2022-08-01T07:22:03;1.93;;;0.82;;
43413;SDS011;29013;49.676;8.606;2022-08-01T07:27:25;0.95;;;0.75;;
43413;SDS011;29013;49.676;8.606;2022-08-01T07:32:46;0.87;;;0.87;;
43413;SDS011;29013;49.676;8.606;2022-08-01T07:38:08;0.97;;;0.95;;
43413;SDS011;29013;49.676;8.606;2022-08-01T07:43:30;3.09;;;0.98;;
43413;SDS011;29013;49.676;8.606;2022-08-01T07:48:51;1.25;;;0.8;;
43413;SDS011;29013;49.676;8.606;2022-08-01T07:54:13;1.19;;;1.01;;
43413;SDS011;29013;49.676;8.606;2022-08-01T07:59:35;1.74;;;0.77;;
43413;SDS011;29013;49.676;8.606;2022-08-01T08:04:57;0.89;;;0.92;;
43413;SDS011;29013;49.676;8.606;2022-08-01T08:10:19;1.74;;;1.12;;
43413;SDS011;29013;49.676;8.606;2022-08-01T08:15:43;0.92;;;0.71;;
43413;SDS011;29013;49.676;8.606;2022-08-01T08:21:11;1.14;;;0.78;;
43413;SDS011;29013;49.676;8.606;2022-08-01T08:26:38;1.3;;;0.74;;
43413;SDS011;29013;49.676;8.606;2022-08-01T08:32:09;1.03;;;0.96;;
43413;SDS011;29013;49.676;8.606;2022-08-01T08:37:36;2.77;;;0.96;;
43413;SDS011;29013;49.676;8.606;2022-08-01T08:43:00;0.95;;;0.92;;
43413;SDS011;29013;49.676;8.606;2022-08-01T08:48:26;2.08;;;0.77;;
43413;SDS011;29013;49.676;8.606;2022-08-01T08:53:53;0.74;;;0.79;;
43413;SDS011;29013;49.676;8.606;2022-08-01T08:59:21;3.01;;;0.91;;
43413;SDS011;29013;49.676;8.606;2022-08-01T09:04:50;1.3;;;1.03;;
43413;SDS011;29013;49.676;8.606;2022-08-01T09:10:17;1.02;;;0.94;;
43413;SDS011;29013;49.676;8.606;2022-08-01T09:15:43;0.96;;;0.72;;
43413;SDS011;29013;49.676;8.606;2022-08-01T09:21:11;0.99;;;0.69;;
43413;SDS011;29013;49.676;8.606;2022-08-01T09:26:34;0.95;;;0.75;;
43413;SDS011;29013;49.676;8.606;2022-08-01T09:32:01;1.47;;;0.9;;
43413;SDS011;29013;49.676;8.606;2022-08-01T09:37:30;1.24;;;0.99;;
43413;SDS011;29013;49.676;8.606;2022-08-01T09:42:57;1.59;;;0.85;;
43413;SDS011;29013;49.676;8.606;2022-08-01T09:48:34;1.5;;;0.82;;
43413;SDS011;29013;49.676;8.606;2022-08-01T09:54:03;2.88;;;1.12;;
43413;SDS011;29013;49.676;8.606;2022-08-01T09:59:35;1.03;;;0.98;;
43413;SDS011;29013;49.676;8.606;2022-08-01T10:05:00;0.82;;;0.79;;
43413;SDS011;29013;49.676;8.606;2022-08-01T10:10:26;1.23;;;0.85;;
43413;SDS011;29013;49.676;8.606;2022-08-01T10:15:53;1.03;;;0.95;;
43413;SDS011;29013;49.676;8.606;2022-08-01T10:21:37;1.27;;;0.74;;
43413;SDS011;29013;49.676;8.606;2022-08-01T10:32:51;0.72;;;0.76;;
43413;SDS011;29013;49.676;8.606;2022-08-01T10:38:13;1.01;;;0.75;;
43413;SDS011;29013;49.676;8.606;2022-08-01T10:43:36;2.11;;;0.71;;
43413;SDS011;29013;49.676;8.606;2022-08-01T10:48:58;0.95;;;0.72;;
43413;SDS011;29013;49.676;8.606;2022-08-01T10:54:19;2.09;;;0.97;;
43413;SDS011;29013;49.676;8.606;2022-08-01T10:59:50;0.84;;;0.78;;
43413;SDS011;29013;49.676;8.606;2022-08-01T11:05:12;1.8;;;1.15;;
43413;SDS011;29013;49.676;8.606;2022-08-01T11:10:36;1.64;;;0.51;;
43413;SDS011;29013;49.676;8.606;2022-08-01T11:15:58;2.22;;;0.66;;
43413;SDS011;29013;49.676;8.606;2022-08-01T11:21:31;1.1;;;0.72;;
43413;SDS011;29013;49.676;8.606;2022-08-01T11:27:18;1.84;;;0.84;;
43413;SDS011;29013;49.676;8.606;2022-08-01T11:32:46;0.84;;;0.61;;
43413;SDS011;29013;49.676;8.606;2022-08-01T11:38:24;1.09;;;0.86;;
43413;SDS011;29013;49.676;8.606;2022-08-01T11:43:56;0.97;;;0.9;;
43413;SDS011;29013;49.676;8.606;2022-08-01T11:49:24;0.96;;;0.77;;
43413;SDS011;29013;49.676;8.606;2022-08-01T11:55:07;1.57;;;0.5;;
43413;SDS011;29013;49.676;8.606;2022-08-01T12:00:32;1.3;;;0.62;;
43413;SDS011;29013;49.676;8.606;2022-08-01T12:05:59;1.12;;;0.75;;
43413;SDS011;29013;49.676;8.606;2022-08-01T12:11:25;0.68;;;0.69;;
43413;SDS011;29013;49.676;8.606;2022-08-01T12:16:53;0.75;;;0.39;;
43413;SDS011;29013;49.676;8.606;2022-08-01T12:22:22;2.14;;;0.85;;
43413;SDS011;29013;49.676;8.606;2022-08-01T12:27:44;1.15;;;0.62;;
43413;SDS011;29013;49.676;8.606;2022-08-01T12:33:16;0.94;;;0.77;;
43413;SDS011;29013;49.676;8.606;2022-08-01T12:38:34;0.81;;;0.67;;
43413;SDS011;29013;49.676;8.606;2022-08-01T12:43:59;1.5;;;0.76;;
43413;SDS011;29013;49.676;8.606;2022-08-01T12:49:25;0.64;;;0.64;;
43413;SDS011;29013;49.676;8.606;2022-08-01T12:55:03;0.43;;;0.43;;
43413;SDS011;29013;49.676;8.606;2022-08-01T13:00:30;1.3;;;0.52;;
43413;SDS011;29013;49.676;8.606;2022-08-01T13:05:57;2.96;;;0.75;;
43413;SDS011;29013;49.676;8.606;2022-08-01T13:11:19;1.07;;;0.75;;
43413;SDS011;29013;49.676;8.606;2022-08-01T13:16:47;0.83;;;0.69;;
43413;SDS011;29013;49.676;8.606;2022-08-01T13:22:14;0.66;;;0.58;;
43413;SDS011;29013;49.676;8.606;2022-08-01T13:27:42;0.95;;;0.72;;
43413;SDS011;29013;49.676;8.606;2022-08-01T13:33:08;0.68;;;0.69;;
43413;SDS011;29013;49.676;8.606;2022-08-01T13:38:36;1.13;;;0.74;;
43413;SDS011;29013;49.676;8.606;2022-08-01T13:44:04;3.45;;;0.7;;
43413;SDS011;29013;49.676;8.606;2022-08-01T13:49:32;1.0;;;0.65;;
43413;SDS011;29013;49.676;8.606;2022-08-01T13:54:54;1.33;;;0.61;;
43413;SDS011;29013;49.676;8.606;2022-08-01T14:00:22;0.73;;;0.6;;
43413;SDS011;29013;49.676;8.606;2022-08-01T14:05:50;1.01;;;0.59;;
43413;SDS011;29013;49.676;8.606;2022-08-01T14:11:15;0.91;;;0.61;;
43413;SDS011;29013;49.676;8.606;2022-08-01T14:16:40;0.91;;;0.75;;
43413;SDS011;29013;49.676;8.606;2022-08-01T14:22:06;1.09;;;0.59;;
43413;SDS011;29013;49.676;8.606;2022-08-01T14:27:33;1.06;;;0.76;;
43413;SDS011;29013;49.676;8.606;2022-08-01T14:32:55;4.98;;;0.74;;
43413;SDS011;29013;49.676;8.606;2022-08-01T14:38:24;1.03;;;0.73;;
43413;SDS011;29013;49.676;8.606;2022-08-01T14:43:48;1.9;;;0.73;;
43413;SDS011;29013;49.676;8.606;2022-08-01T14:49:15;1.41;;;1.0;;
43413;SDS011;29013;49.676;8.606;2022-08-01T14:54:43;0.62;;;0.62;;
43413;SDS011;29013;49.676;8.606;2022-08-01T15:00:13;0.82;;;0.39;;
43413;SDS011;29013;49.676;8.606;2022-08-01T15:05:42;1.76;;;0.71;;
43413;SDS011;29013;49.676;8.606;2022-08-01T15:11:11;2.07;;;0.54;;
43413;SDS011;29013;49.676;8.606;2022-08-01T15:16:37;0.66;;;0.42;;
43413;SDS011;29013;49.676;8.606;2022-08-01T15:22:02;0.86;;;0.49;;
43413;SDS011;29013;49.676;8.606;2022-08-01T15:27:28;1.42;;;0.52;;
43413;SDS011;29013;49.676;8.606;2022-08-01T15:32:53;2.84;;;0.62;;
43413;SDS011;29013;49.676;8.606;2022-08-01T15:38:15;2.32;;;0.66;;
43413;SDS011;29013;49.676;8.606;2022-08-01T15:43:37;2.97;;;0.57;;
43413;SDS011;29013;49.676;8.606;2022-08-01T15:49:04;1.31;;;0.6;;
43413;SDS011;29013;49.676;8.606;2022-08-01T15:54:31;4.2;;;0.81;;
43413;SDS011;29013;49.676;8.606;2022-08-01T15:59:54;0.86;;;0.61;;
43413;SDS011;29013;49.676;8.606;2022-08-01T16:05:22;3.41;;;0.86;;
43413;SDS011;29013;49.676;8.606;2022-08-01T16:10:50;1.9;;;0.72;;
43413;SDS011;29013;49.676;8.606;2022-08-01T16:16:15;2.85;;;0.7;;
43413;SDS011;29013;49.676;8.606;2022-08-01T16:21:43;1.14;;;0.72;;
43413;SDS011;29013;49.676;8.606;2022-08-01T16:27:10;6.29;;;0.68;;
43413;SDS011;29013;49.676;8.606;2022-08-01T16:32:38;1.51;;;0.8;;
43413;SDS011;29013;49.676;8.606;2022-08-01T16:38:03;0.49;;;0.47;;
43413;SDS011;29013;49.676;8.606;2022-08-01T16:43:30;0.75;;;0.71;;
43413;SDS011;29013;49.676;8.606;2022-08-01T16:48:57;2.75;;;0.7;;
43413;SDS011;29013;49.676;8.606;2022-08-01T16:54:24;2.48;;;0.87;;
43413;SDS011;29013;49.676;8.606;2022-08-01T16:59:50;1.42;;;0.72;;
43413;SDS011;29013;49.676;8.606;2022-08-01T17:05:12;1.21;;;0.61;;
43413;SDS011;29013;49.676;8.606;2022-08-01T17:10:34;0.75;;;0.62;;
43413;SDS011;29013;49.676;8.606;2022-08-01T17:16:00;0.65;;;0.69;;
43413;SDS011;29013;49.676;8.606;2022-08-01T17:21:26;1.86;;;0.83;;
43413;SDS011;29013;49.676;8.606;2022-08-01T17:26:51;1.79;;;0.91;;
43413;SDS011;29013;49.676;8.606;2022-08-01T17:32:17;0.76;;;0.67;;
43413;SDS011;29013;49.676;8.606;2022-08-01T17:37:43;1.43;;;0.62;;
43413;SDS011;29013;49.676;8.606;2022-08-01T17:43:12;1.52;;;0.86;;
43413;SDS011;29013;49.676;8.606;2022-08-01T17:48:37;1.33;;;0.87;;
43413;SDS011;29013;49.676;8.606;2022-08-01T17:54:05;2.97;;;1.07;;
43413;SDS011;29013;49.676;8.606;2022-08-01T17:59:32;2.19;;;0.66;;
43413;SDS011;29013;49.676;8.606;2022-08-01T18:04:54;1.29;;;0.81;;
43413;SDS011;29013;49.676;8.606;2022-08-01T18:10:16;2.84;;;0.61;;
43413;SDS011;29013;49.676;8.606;2022-08-01T18:15:43;1.99;;;0.59;;
43413;SDS011;29013;49.676;8.606;2022-08-01T18:21:09;2.48;;;0.61;;
43413;SDS011;29013;49.676;8.606;2022-08-01T18:26:35;1.41;;;0.71;;
43413;SDS011;29013;49.676;8.606;2022-08-01T18:32:01;2.55;;;0.88;;
43413;SDS011;29013;49.676;8.606;2022-08-01T18:37:25;2.82;;;0.91;;
43413;SDS011;29013;49.676;8.606;2022-08-01T18:42:52;2.01;;;1.15;;
43413;SDS011;29013;49.676;8.606;2022-08-01T18:48:17;3.89;;;0.84;;
43413;SDS011;29013;49.676;8.606;2022-08-01T18:53:45;1.88;;;0.76;;
43413;SDS011;29013;49.676;8.606;2022-08-01T18:59:10;4.41;;;1.03;;
43413;SDS011;29013;49.676;8.606;2022-08-01T19:04:38;1.95;;;0.87;;
43413;SDS011;29013;49.676;8.606;2022-08-01T19:10:07;26.03;;;4.32;;
43413;SDS011;29013;49.676;8.606;2022-08-01T19:15:34;13.13;;;2.47;;
43413;SDS011;29013;49.676;8.606;2022-08-01T19:20:59;5.55;;;2.12;;
43413;SDS011;29013;49.676;8.606;2022-08-01T19:26:26;2.67;;;1.15;;
43413;SDS011;29013;49.676;8.606;2022-08-01T19:31:53;2.26;;;1.29;;
43413;SDS011;29013;49.676;8.606;2022-08-01T19:37:19;4.44;;;1.69;;
43413;SDS011;29013;49.676;8.606;2022-08-01T19:42:43;1.85;;;1.29;;
43413;SDS011;29013;49.676;8.606;2022-08-01T19:48:11;3.94;;;1.39;;
43413;SDS011;29013;49.676;8.606;2022-08-01T19:53:41;3.25;;;1.22;;
43413;SDS011;29013;49.676;8.606;2022-08-01T19:59:05;1.88;;;1.19;;
43413;SDS011;29013;49.676;8.606;2022-08-01T20:04:32;2.03;;;1.29;;
43413;SDS011;29013;49.676;8.606;2022-08-01T20:09:58;1.7;;;1.16;;
43413;SDS011;29013;49.676;8.606;2022-08-01T20:15:22;1.32;;;1.32;;
43413;SDS011;29013;49.676;8.606;2022-08-01T20:20:50;1.96;;;1.5;;
43413;SDS011;29013;49.676;8.606;2022-08-01T20:26:16;3.01;;;1.7;;
43413;SDS011;29013;49.676;8.606;2022-08-01T20:31:41;1.38;;;1.47;;
43413;SDS011;29013;49.676;8.606;2022-08-01T20:37:06;2.21;;;1.47;;
43413;SDS011;29013;49.676;8.606;2022-08-01T20:42:30;3.12;;;1.38;;
43413;SDS011;29013;49.676;8.606;2022-08-01T20:47:56;1.27;;;1.34;;
43413;SDS011;29013;49.676;8.606;2022-08-01T20:53:25;2.46;;;1.85;;
43413;SDS011;29013;49.676;8.606;2022-08-01T20:58:51;3.75;;;1.86;;
43413;SDS011;29013;49.676;8.606;2022-08-01T21:04:41;3.03;;;1.73;;
43413;SDS011;29013;49.676;8.606;2022-08-01T21:10:05;3.18;;;1.98;;
43413;SDS011;29013;49.676;8.606;2022-08-01T21:15:31;2.77;;;1.88;;
43413;SDS011;29013;49.676;8.606;2022-08-01T21:20:58;2.28;;;1.75;;
43413;SDS011;29013;49.676;8.606;2022-08-01T21:26:24;2.22;;;1.91;;
43413;SDS011;29013;49.676;8.606;2022-08-01T21:31:52;2.54;;;2.01;;
43413;SDS011;29013;49.676;8.606;2022-08-01T21:37:19;3.1;;;2.28;;
43413;SDS011;29013;49.676;8.606;2022-08-01T21:42:46;1.88;;;2.03;;
43413;SDS011;29013;49.676;8.606;2022-08-01T21:48:13;3.69;;;2.2;;
43413;SDS011;29013;49.676;8.606;2022-08-01T21:53:41;4.8;;;2.32;;
43413;SDS011;29013;49.676;8.606;2022-08-01T21:59:06;2.17;;;1.9;;
43413;SDS011;29013;49.676;8.606;2022-08-01T22:04:32;2.4;;;1.9;;
43413;SDS011;29013;49.676;8.606;2022-08-01T22:09:55;3.39;;;2.04;;
43413;SDS011;29013;49.676;8.606;2022-08-01T22:15:17;3.85;;;2.03;;
43413;SDS011;29013;49.676;8.606;2022-08-01T22:20:41;4.62;;;1.98;;
43413;SDS011;29013;49.676;8.606;2022-08-01T22:26:04;3.05;;;2.2;;
43413;SDS011;29013;49.676;8.606;2022-08-01T22:31:29;2.83;;;1.96;;
43413;SDS011;29013;49.676;8.606;2022-08-01T22:36:56;2.08;;;1.92;;
43413;SDS011;29013;49.676;8.606;2022-08-01T22:42:24;2.48;;;2.12;;
43413;SDS011;29013;49.676;8.606;2022-08-01T22:47:49;3.42;;;1.99;;
43413;SDS011;29013;49.676;8.606;2022-08-01T22:53:15;2.31;;;2.12;;
43413;SDS011;29013;49.676;8.606;2022-08-01T22:58:40;2.27;;;2.07;;
43413;SDS011;29013;49.676;8.606;2022-08-01T23:04:07;3.19;;;2.04;;
43413;SDS011;29013;49.676;8.606;2022-08-01T23:09:35;2.55;;;2.19;;
43413;SDS011;29013;49.676;8.606;2022-08-01T23:15:06;4.04;;;2.34;;
43413;SDS011;29013;49.676;8.606;2022-08-01T23:20:28;2.5;;;2.24;;
43413;SDS011;29013;49.676;8.606;2022-08-01T23:25:51;3.53;;;2.41;;
43413;SDS011;29013;49.676;8.606;2022-08-01T23:31:18;2.98;;;2.29;;
43413;SDS011;29013;49.676;8.606;2022-08-01T23:36:46;2.64;;;2.44;;
43413;SDS011;29013;49.676;8.606;2022-08-01T23:42:14;6.12;;;2.81;;
43413;SDS011;29013;49.676;8.606;2022-08-01T23:47:38;2.07;;;2.26;;
43413;SDS011;29013;49.676;8.606;2022-08-01T23:53:00;3.54;;;2.54;;
43413;SDS011;29013;49.676;8.606;2022-08-01T23:58:27;2.68;;;2.58;;
